sensor_id;sensor_type;location;lat;lon;timestamp;P1;durP1;ratioP1;P2;durP2;ratioP2
63555;SDS011;49700;48.072;7.800;2023-08-30T00:01:56;3.90;;;2.50;;
63555;SDS011;49700;48.072;7.800;2023-08-30T00:04:22;3.93;;;3.13;;
63555;SDS011;49700;48.072;7.800;2023-08-30T00:06:47;3.23;;;2.90;;
63555;SDS011;49700;48.072;7.800;2023-08-30T00:09:13;2.97;;;2.73;;
63555;SDS011;49700;48.072;7.800;2023-08-30T00:11:38;4.77;;;3.93;;
63555;SDS011;49700;48.072;7.800;2023-08-30T00:14:04;4.00;;;3.23;;
63555;SDS011;49700;48.072;7.800;2023-08-30T00:16:31;4.25;;;3.33;;
63555;SDS011;49700;48.072;7.800;2023-08-30T00:18:58;4.40;;;3.60;;
63555;SDS011;49700;48.072;7.800;2023-08-30T00:21:24;3.47;;;3.27;;
63555;SDS011;49700;48.072;7.800;2023-08-30T00:23:50;3.95;;;3.47;;
63555;SDS011;49700;48.072;7.800;2023-08-30T00:26:16;3.10;;;2.83;;
63555;SDS011;49700;48.072;7.800;2023-08-30T00:28:41;3.40;;;2.83;;
63555;SDS011;49700;48.072;7.800;2023-08-30T00:31:07;3.33;;;3.13;;
63555;SDS011;49700;48.072;7.800;2023-08-30T00:33:32;6.00;;;4.17;;
63555;SDS011;49700;48.072;7.800;2023-08-30T00:35:58;3.80;;;3.40;;
63555;SDS011;49700;48.072;7.800;2023-08-30T00:38:25;3.30;;;3.00;;
63555;SDS011;49700;48.072;7.800;2023-08-30T00:40:52;4.72;;;3.40;;
63555;SDS011;49700;48.072;7.800;2023-08-30T00:43:18;3.77;;;3.47;;
63555;SDS011;49700;48.072;7.800;2023-08-30T00:45:44;4.15;;;3.13;;
63555;SDS011;49700;48.072;7.800;2023-08-30T00:48:10;2.90;;;2.67;;
63555;SDS011;49700;48.072;7.800;2023-08-30T00:50:36;5.13;;;3.05;;
63555;SDS011;49700;48.072;7.800;2023-08-30T00:53:03;3.58;;;2.88;;
63555;SDS011;49700;48.072;7.800;2023-08-30T00:55:32;3.10;;;2.80;;
63555;SDS011;49700;48.072;7.800;2023-08-30T00:57:59;6.32;;;3.20;;
63555;SDS011;49700;48.072;7.800;2023-08-30T01:00:27;9.57;;;3.47;;
63555;SDS011;49700;48.072;7.800;2023-08-30T01:02:54;3.60;;;3.30;;
63555;SDS011;49700;48.072;7.800;2023-08-30T01:05:20;4.00;;;2.75;;
63555;SDS011;49700;48.072;7.800;2023-08-30T01:07:45;3.97;;;2.57;;
63555;SDS011;49700;48.072;7.800;2023-08-30T01:10:11;3.77;;;2.80;;
63555;SDS011;49700;48.072;7.800;2023-08-30T01:12:37;3.90;;;3.27;;
63555;SDS011;49700;48.072;7.800;2023-08-30T01:15:29;8.00;;;3.20;;
63555;SDS011;49700;48.072;7.800;2023-08-30T01:17:54;3.70;;;3.40;;
63555;SDS011;49700;48.072;7.800;2023-08-30T01:20:22;4.05;;;3.53;;
63555;SDS011;49700;48.072;7.800;2023-08-30T01:23:05;3.55;;;3.00;;
63555;SDS011;49700;48.072;7.800;2023-08-30T01:28:37;4.22;;;3.45;;
63555;SDS011;49700;48.072;7.800;2023-08-30T01:31:04;4.03;;;3.55;;
63555;SDS011;49700;48.072;7.800;2023-08-30T01:33:32;3.70;;;3.30;;
63555;SDS011;49700;48.072;7.800;2023-08-30T01:35:59;4.18;;;3.78;;
63555;SDS011;49700;48.072;7.800;2023-08-30T01:38:27;3.95;;;3.65;;
63555;SDS011;49700;48.072;7.800;2023-08-30T01:40:55;4.70;;;3.53;;
63555;SDS011;49700;48.072;7.800;2023-08-30T01:43:23;5.28;;;4.15;;
63555;SDS011;49700;48.072;7.800;2023-08-30T01:45:51;4.43;;;4.03;;
63555;SDS011;49700;48.072;7.800;2023-08-30T01:48:17;4.20;;;3.80;;
63555;SDS011;49700;48.072;7.800;2023-08-30T01:50:46;3.70;;;3.40;;
63555;SDS011;49700;48.072;7.800;2023-08-30T01:53:12;4.93;;;3.27;;
63555;SDS011;49700;48.072;7.800;2023-08-30T01:55:39;4.03;;;3.65;;
63555;SDS011;49700;48.072;7.800;2023-08-30T01:58:05;3.92;;;3.63;;
63555;SDS011;49700;48.072;7.800;2023-08-30T02:00:31;4.35;;;3.95;;
63555;SDS011;49700;48.072;7.800;2023-08-30T02:02:57;3.65;;;3.35;;
63555;SDS011;49700;48.072;7.800;2023-08-30T02:05:23;3.53;;;3.23;;
63555;SDS011;49700;48.072;7.800;2023-08-30T02:07:51;5.30;;;3.67;;
63555;SDS011;49700;48.072;7.800;2023-08-30T02:10:31;3.40;;;3.10;;
63555;SDS011;49700;48.072;7.800;2023-08-30T02:13:00;4.60;;;2.90;;
63555;SDS011;49700;48.072;7.800;2023-08-30T02:15:28;3.95;;;3.55;;
63555;SDS011;49700;48.072;7.800;2023-08-30T02:17:56;3.70;;;3.03;;
63555;SDS011;49700;48.072;7.800;2023-08-30T02:20:22;4.30;;;3.27;;
63555;SDS011;49700;48.072;7.800;2023-08-30T02:22:48;3.67;;;3.37;;
63555;SDS011;49700;48.072;7.800;2023-08-30T02:25:13;3.10;;;2.80;;
63555;SDS011;49700;48.072;7.800;2023-08-30T02:27:39;3.03;;;2.77;;
63555;SDS011;49700;48.072;7.800;2023-08-30T02:30:05;3.73;;;3.43;;
63555;SDS011;49700;48.072;7.800;2023-08-30T02:32:30;2.90;;;2.57;;
63555;SDS011;49700;48.072;7.800;2023-08-30T02:34:56;3.10;;;2.90;;
63555;SDS011;49700;48.072;7.800;2023-08-30T02:37:22;3.50;;;3.20;;
63555;SDS011;49700;48.072;7.800;2023-08-30T02:39:49;5.55;;;3.45;;
63555;SDS011;49700;48.072;7.800;2023-08-30T02:42:15;3.30;;;3.00;;
63555;SDS011;49700;48.072;7.800;2023-08-30T02:44:40;5.40;;;3.90;;
63555;SDS011;49700;48.072;7.800;2023-08-30T02:47:07;3.83;;;3.00;;
63555;SDS011;49700;48.072;7.800;2023-08-30T02:49:32;4.60;;;4.03;;
63555;SDS011;49700;48.072;7.800;2023-08-30T02:51:58;5.13;;;3.37;;
63555;SDS011;49700;48.072;7.800;2023-08-30T02:54:23;5.30;;;3.37;;
63555;SDS011;49700;48.072;7.800;2023-08-30T02:56:49;4.10;;;3.33;;
63555;SDS011;49700;48.072;7.800;2023-08-30T02:59:15;3.50;;;3.20;;
63555;SDS011;49700;48.072;7.800;2023-08-30T03:01:43;5.20;;;3.55;;
63555;SDS011;49700;48.072;7.800;2023-08-30T03:04:10;5.13;;;3.80;;
63555;SDS011;49700;48.072;7.800;2023-08-30T03:06:35;4.20;;;3.90;;
63555;SDS011;49700;48.072;7.800;2023-08-30T03:09:01;3.80;;;3.50;;
63555;SDS011;49700;48.072;7.800;2023-08-30T03:11:34;3.78;;;3.47;;
63555;SDS011;49700;48.072;7.800;2023-08-30T03:14:00;3.63;;;3.33;;
63555;SDS011;49700;48.072;7.800;2023-08-30T03:16:25;3.60;;;3.30;;
63555;SDS011;49700;48.072;7.800;2023-08-30T03:18:52;4.38;;;3.90;;
63555;SDS011;49700;48.072;7.800;2023-08-30T03:21:17;4.30;;;3.87;;
63555;SDS011;49700;48.072;7.800;2023-08-30T03:23:43;3.53;;;3.23;;
63555;SDS011;49700;48.072;7.800;2023-08-30T03:26:09;3.40;;;3.10;;
63555;SDS011;49700;48.072;7.800;2023-08-30T03:28:35;3.67;;;3.38;;
63555;SDS011;49700;48.072;7.800;2023-08-30T03:31:01;3.60;;;3.30;;
63555;SDS011;49700;48.072;7.800;2023-08-30T03:33:26;4.80;;;3.80;;
63555;SDS011;49700;48.072;7.800;2023-08-30T03:35:52;5.80;;;3.93;;
63555;SDS011;49700;48.072;7.800;2023-08-30T03:38:17;4.73;;;4.00;;
63555;SDS011;49700;48.072;7.800;2023-08-30T03:40:43;6.73;;;3.47;;
63555;SDS011;49700;48.072;7.800;2023-08-30T03:43:08;3.40;;;3.10;;
63555;SDS011;49700;48.072;7.800;2023-08-30T03:45:34;4.20;;;3.53;;
63555;SDS011;49700;48.072;7.800;2023-08-30T03:48:01;3.25;;;3.00;;
63555;SDS011;49700;48.072;7.800;2023-08-30T03:50:26;4.50;;;4.10;;
63555;SDS011;49700;48.072;7.800;2023-08-30T03:52:52;3.97;;;3.67;;
63555;SDS011;49700;48.072;7.800;2023-08-30T03:55:17;3.83;;;3.47;;
63555;SDS011;49700;48.072;7.800;2023-08-30T03:57:43;3.47;;;2.57;;
63555;SDS011;49700;48.072;7.800;2023-08-30T04:00:08;3.00;;;2.70;;
63555;SDS011;49700;48.072;7.800;2023-08-30T04:02:42;3.40;;;3.10;;
63555;SDS011;49700;48.072;7.800;2023-08-30T04:05:10;3.35;;;3.05;;
63555;SDS011;49700;48.072;7.800;2023-08-30T04:07:36;3.50;;;2.85;;
63555;SDS011;49700;48.072;7.800;2023-08-30T04:10:02;3.70;;;3.10;;
63555;SDS011;49700;48.072;7.800;2023-08-30T04:12:31;4.10;;;3.70;;
63555;SDS011;49700;48.072;7.800;2023-08-30T04:14:56;5.10;;;4.13;;
63555;SDS011;49700;48.072;7.800;2023-08-30T04:17:22;4.23;;;3.83;;
63555;SDS011;49700;48.072;7.800;2023-08-30T04:19:51;5.95;;;4.22;;
63555;SDS011;49700;48.072;7.800;2023-08-30T04:22:17;5.70;;;4.88;;
63555;SDS011;49700;48.072;7.800;2023-08-30T04:24:48;6.82;;;4.03;;
63555;SDS011;49700;48.072;7.800;2023-08-30T04:27:14;4.05;;;3.33;;
63555;SDS011;49700;48.072;7.800;2023-08-30T04:29:39;4.33;;;3.43;;
63555;SDS011;49700;48.072;7.800;2023-08-30T04:32:05;3.63;;;3.33;;
63555;SDS011;49700;48.072;7.800;2023-08-30T04:34:31;4.43;;;3.97;;
63555;SDS011;49700;48.072;7.800;2023-08-30T04:36:57;4.78;;;4.38;;
63555;SDS011;49700;48.072;7.800;2023-08-30T04:39:23;3.87;;;3.47;;
63555;SDS011;49700;48.072;7.800;2023-08-30T04:41:49;4.70;;;4.30;;
63555;SDS011;49700;48.072;7.800;2023-08-30T04:44:15;3.90;;;3.50;;
63555;SDS011;49700;48.072;7.800;2023-08-30T04:46:42;3.63;;;3.35;;
63555;SDS011;49700;48.072;7.800;2023-08-30T04:49:08;3.87;;;3.27;;
63555;SDS011;49700;48.072;7.800;2023-08-30T04:51:33;4.10;;;3.70;;
63555;SDS011;49700;48.072;7.800;2023-08-30T04:53:58;3.77;;;3.37;;
63555;SDS011;49700;48.072;7.800;2023-08-30T04:56:24;4.57;;;4.17;;
63555;SDS011;49700;48.072;7.800;2023-08-30T04:58:49;5.10;;;3.40;;
63555;SDS011;49700;48.072;7.800;2023-08-30T05:01:16;3.60;;;3.30;;
63555;SDS011;49700;48.072;7.800;2023-08-30T05:03:45;3.17;;;2.90;;
63555;SDS011;49700;48.072;7.800;2023-08-30T05:06:13;4.30;;;3.90;;
63555;SDS011;49700;48.072;7.800;2023-08-30T05:08:41;3.33;;;3.03;;
63555;SDS011;49700;48.072;7.800;2023-08-30T05:11:07;3.93;;;3.63;;
63555;SDS011;49700;48.072;7.800;2023-08-30T05:13:34;3.97;;;3.58;;
63555;SDS011;49700;48.072;7.800;2023-08-30T05:16:00;3.67;;;3.37;;
63555;SDS011;49700;48.072;7.800;2023-08-30T05:18:25;4.40;;;3.77;;
63555;SDS011;49700;48.072;7.800;2023-08-30T05:20:51;5.27;;;3.90;;
63555;SDS011;49700;48.072;7.800;2023-08-30T05:23:16;11.30;;;6.00;;
63555;SDS011;49700;48.072;7.800;2023-08-30T05:25:42;4.70;;;4.40;;
63555;SDS011;49700;48.072;7.800;2023-08-30T05:28:07;10.53;;;7.10;;
63555;SDS011;49700;48.072;7.800;2023-08-30T05:30:33;8.80;;;4.70;;
63555;SDS011;49700;48.072;7.800;2023-08-30T05:32:59;5.53;;;4.95;;
63555;SDS011;49700;48.072;7.800;2023-08-30T05:35:42;6.55;;;4.35;;
63555;SDS011;49700;48.072;7.800;2023-08-30T05:38:27;5.07;;;4.45;;
63555;SDS011;49700;48.072;7.800;2023-08-30T05:41:13;4.00;;;3.70;;
63555;SDS011;49700;48.072;7.800;2023-08-30T05:43:39;4.23;;;3.50;;
63555;SDS011;49700;48.072;7.800;2023-08-30T05:46:04;4.20;;;3.80;;
63555;SDS011;49700;48.072;7.800;2023-08-30T05:48:30;3.60;;;3.30;;
63555;SDS011;49700;48.072;7.800;2023-08-30T05:50:56;4.47;;;4.07;;
63555;SDS011;49700;48.072;7.800;2023-08-30T05:53:22;5.13;;;4.43;;
63555;SDS011;49700;48.072;7.800;2023-08-30T05:55:48;3.17;;;2.97;;
63555;SDS011;49700;48.072;7.800;2023-08-30T05:58:13;5.07;;;4.17;;
63555;SDS011;49700;48.072;7.800;2023-08-30T06:00:40;4.38;;;3.97;;
63555;SDS011;49700;48.072;7.800;2023-08-30T06:03:06;3.00;;;2.70;;
63555;SDS011;49700;48.072;7.800;2023-08-30T06:05:31;4.33;;;3.97;;
63555;SDS011;49700;48.072;7.800;2023-08-30T06:07:56;4.57;;;4.17;;
63555;SDS011;49700;48.072;7.800;2023-08-30T06:10:22;3.93;;;3.53;;
63555;SDS011;49700;48.072;7.800;2023-08-30T06:12:48;4.07;;;3.67;;
63555;SDS011;49700;48.072;7.800;2023-08-30T06:15:13;3.83;;;3.50;;
63555;SDS011;49700;48.072;7.800;2023-08-30T06:17:39;4.40;;;3.47;;
63555;SDS011;49700;48.072;7.800;2023-08-30T06:20:05;3.83;;;3.53;;
63555;SDS011;49700;48.072;7.800;2023-08-30T06:22:32;4.05;;;3.28;;
63555;SDS011;49700;48.072;7.800;2023-08-30T06:24:57;4.87;;;4.10;;
63555;SDS011;49700;48.072;7.800;2023-08-30T06:27:23;4.00;;;3.60;;
63555;SDS011;49700;48.072;7.800;2023-08-30T06:29:49;5.90;;;4.43;;
63555;SDS011;49700;48.072;7.800;2023-08-30T06:32:15;4.30;;;3.95;;
63555;SDS011;49700;48.072;7.800;2023-08-30T06:34:42;4.03;;;3.72;;
63555;SDS011;49700;48.072;7.800;2023-08-30T06:37:07;6.30;;;4.33;;
63555;SDS011;49700;48.072;7.800;2023-08-30T06:39:33;3.50;;;3.27;;
63555;SDS011;49700;48.072;7.800;2023-08-30T06:41:59;3.65;;;3.15;;
63555;SDS011;49700;48.072;7.800;2023-08-30T06:44:26;5.05;;;4.57;;
63555;SDS011;49700;48.072;7.800;2023-08-30T06:46:52;4.83;;;3.70;;
63555;SDS011;49700;48.072;7.800;2023-08-30T06:49:17;4.43;;;4.03;;
63555;SDS011;49700;48.072;7.800;2023-08-30T06:51:43;6.27;;;3.93;;
63555;SDS011;49700;48.072;7.800;2023-08-30T06:54:08;4.63;;;4.17;;
63555;SDS011;49700;48.072;7.800;2023-08-30T06:56:33;4.47;;;4.07;;
63555;SDS011;49700;48.072;7.800;2023-08-30T06:58:59;4.00;;;3.70;;
63555;SDS011;49700;48.072;7.800;2023-08-30T07:01:24;4.70;;;3.80;;
63555;SDS011;49700;48.072;7.800;2023-08-30T07:03:50;3.90;;;3.60;;
63555;SDS011;49700;48.072;7.800;2023-08-30T07:06:15;3.93;;;3.63;;
63555;SDS011;49700;48.072;7.800;2023-08-30T07:08:41;3.43;;;3.23;;
63555;SDS011;49700;48.072;7.800;2023-08-30T07:11:06;3.90;;;3.53;;
63555;SDS011;49700;48.072;7.800;2023-08-30T07:13:31;5.10;;;3.70;;
63555;SDS011;49700;48.072;7.800;2023-08-30T07:18:39;3.57;;;3.13;;
63555;SDS011;49700;48.072;7.800;2023-08-30T07:21:04;3.53;;;3.23;;
63555;SDS011;49700;48.072;7.800;2023-08-30T07:23:30;4.43;;;4.03;;
63555;SDS011;49700;48.072;7.800;2023-08-30T07:25:58;3.77;;;3.47;;
63555;SDS011;49700;48.072;7.800;2023-08-30T07:28:23;5.70;;;3.27;;
63555;SDS011;49700;48.072;7.800;2023-08-30T07:30:49;5.13;;;3.20;;
63555;SDS011;49700;48.072;7.800;2023-08-30T07:33:15;6.10;;;4.33;;
63555;SDS011;49700;48.072;7.800;2023-08-30T07:35:40;7.53;;;3.73;;
63555;SDS011;49700;48.072;7.800;2023-08-30T07:38:06;3.57;;;3.37;;
63555;SDS011;49700;48.072;7.800;2023-08-30T07:40:31;4.13;;;3.83;;
63555;SDS011;49700;48.072;7.800;2023-08-30T07:42:57;4.10;;;3.80;;
63555;SDS011;49700;48.072;7.800;2023-08-30T07:45:22;6.63;;;4.17;;
63555;SDS011;49700;48.072;7.800;2023-08-30T07:47:47;4.97;;;4.57;;
63555;SDS011;49700;48.072;7.800;2023-08-30T07:50:13;3.60;;;3.30;;
63555;SDS011;49700;48.072;7.800;2023-08-30T07:52:38;5.30;;;3.83;;
63555;SDS011;49700;48.072;7.800;2023-08-30T07:55:04;5.83;;;4.10;;
63555;SDS011;49700;48.072;7.800;2023-08-30T07:57:29;4.60;;;3.57;;
63555;SDS011;49700;48.072;7.800;2023-08-30T07:59:55;4.27;;;3.67;;
63555;SDS011;49700;48.072;7.800;2023-08-30T08:02:20;5.60;;;3.83;;
63555;SDS011;49700;48.072;7.800;2023-08-30T08:04:45;4.00;;;3.63;;
63555;SDS011;49700;48.072;7.800;2023-08-30T08:07:11;5.60;;;3.43;;
63555;SDS011;49700;48.072;7.800;2023-08-30T08:09:36;4.43;;;3.97;;
63555;SDS011;49700;48.072;7.800;2023-08-30T08:12:02;3.83;;;3.47;;
63555;SDS011;49700;48.072;7.800;2023-08-30T08:14:28;3.80;;;3.40;;
63555;SDS011;49700;48.072;7.800;2023-08-30T08:16:54;3.40;;;3.10;;
63555;SDS011;49700;48.072;7.800;2023-08-30T08:19:19;3.47;;;3.17;;
63555;SDS011;49700;48.072;7.800;2023-08-30T08:21:46;3.77;;;3.47;;
63555;SDS011;49700;48.072;7.800;2023-08-30T08:24:11;3.60;;;3.40;;
63555;SDS011;49700;48.072;7.800;2023-08-30T08:26:37;3.97;;;3.13;;
63555;SDS011;49700;48.072;7.800;2023-08-30T08:29:02;3.03;;;2.83;;
63555;SDS011;49700;48.072;7.800;2023-08-30T08:31:28;2.30;;;2.10;;
63555;SDS011;49700;48.072;7.800;2023-08-30T08:34:10;3.13;;;2.90;;
63555;SDS011;49700;48.072;7.800;2023-08-30T08:36:37;5.37;;;3.63;;
63555;SDS011;49700;48.072;7.800;2023-08-30T08:39:03;2.87;;;2.67;;
63555;SDS011;49700;48.072;7.800;2023-08-30T08:41:35;4.13;;;3.20;;
63555;SDS011;49700;48.072;7.800;2023-08-30T08:44:07;12.87;;;8.07;;
63555;SDS011;49700;48.072;7.800;2023-08-30T08:46:34;4.30;;;3.90;;
63555;SDS011;49700;48.072;7.800;2023-08-30T08:49:02;4.07;;;3.50;;
63555;SDS011;49700;48.072;7.800;2023-08-30T08:51:33;4.23;;;3.93;;
63555;SDS011;49700;48.072;7.800;2023-08-30T08:54:02;5.37;;;3.20;;
63555;SDS011;49700;48.072;7.800;2023-08-30T08:56:28;4.50;;;3.37;;
63555;SDS011;49700;48.072;7.800;2023-08-30T08:58:56;3.97;;;2.73;;
63555;SDS011;49700;48.072;7.800;2023-08-30T09:01:21;3.60;;;3.10;;
63555;SDS011;49700;48.072;7.800;2023-08-30T09:03:47;8.60;;;3.27;;
63555;SDS011;49700;48.072;7.800;2023-08-30T09:06:13;3.57;;;3.27;;
63555;SDS011;49700;48.072;7.800;2023-08-30T09:08:40;3.30;;;3.00;;
63555;SDS011;49700;48.072;7.800;2023-08-30T09:11:05;5.10;;;3.33;;
63555;SDS011;49700;48.072;7.800;2023-08-30T09:13:31;3.77;;;3.13;;
63555;SDS011;49700;48.072;7.800;2023-08-30T09:15:56;3.60;;;3.30;;
63555;SDS011;49700;48.072;7.800;2023-08-30T09:18:22;3.00;;;2.70;;
63555;SDS011;49700;48.072;7.800;2023-08-30T09:20:52;4.27;;;3.20;;
63555;SDS011;49700;48.072;7.800;2023-08-30T09:23:18;3.90;;;3.40;;
63555;SDS011;49700;48.072;7.800;2023-08-30T09:25:45;3.03;;;2.73;;
63555;SDS011;49700;48.072;7.800;2023-08-30T09:28:11;4.00;;;3.70;;
63555;SDS011;49700;48.072;7.800;2023-08-30T09:30:37;4.13;;;3.67;;
63555;SDS011;49700;48.072;7.800;2023-08-30T09:33:04;5.20;;;4.50;;
63555;SDS011;49700;48.072;7.800;2023-08-30T09:35:31;3.13;;;2.90;;
63555;SDS011;49700;48.072;7.800;2023-08-30T09:37:57;4.30;;;2.93;;
63555;SDS011;49700;48.072;7.800;2023-08-30T09:40:22;3.20;;;3.00;;
63555;SDS011;49700;48.072;7.800;2023-08-30T09:42:48;3.47;;;3.17;;
63555;SDS011;49700;48.072;7.800;2023-08-30T09:45:22;3.57;;;3.27;;
63555;SDS011;49700;48.072;7.800;2023-08-30T09:47:51;3.83;;;3.40;;
63555;SDS011;49700;48.072;7.800;2023-08-30T09:50:17;2.90;;;2.70;;
63555;SDS011;49700;48.072;7.800;2023-08-30T09:52:44;4.60;;;2.93;;
63555;SDS011;49700;48.072;7.800;2023-08-30T09:55:11;3.50;;;2.73;;
63555;SDS011;49700;48.072;7.800;2023-08-30T09:57:37;6.73;;;3.20;;
63555;SDS011;49700;48.072;7.800;2023-08-30T10:00:02;4.03;;;3.07;;
63555;SDS011;49700;48.072;7.800;2023-08-30T10:02:30;3.33;;;2.87;;
63555;SDS011;49700;48.072;7.800;2023-08-30T10:04:58;3.33;;;3.13;;
63555;SDS011;49700;48.072;7.800;2023-08-30T10:07:24;2.90;;;2.70;;
63555;SDS011;49700;48.072;7.800;2023-08-30T10:09:50;2.80;;;2.50;;
63555;SDS011;49700;48.072;7.800;2023-08-30T10:12:21;3.27;;;2.90;;
63555;SDS011;49700;48.072;7.800;2023-08-30T10:14:51;3.40;;;3.10;;
63555;SDS011;49700;48.072;7.800;2023-08-30T10:17:18;3.13;;;2.93;;
63555;SDS011;49700;48.072;7.800;2023-08-30T10:19:46;4.40;;;2.90;;
63555;SDS011;49700;48.072;7.800;2023-08-30T10:22:11;3.80;;;3.40;;
63555;SDS011;49700;48.072;7.800;2023-08-30T10:24:46;3.50;;;3.20;;
63555;SDS011;49700;48.072;7.800;2023-08-30T10:27:16;3.33;;;2.93;;
63555;SDS011;49700;48.072;7.800;2023-08-30T10:29:42;3.83;;;2.93;;
63555;SDS011;49700;48.072;7.800;2023-08-30T10:32:10;3.40;;;3.10;;
63555;SDS011;49700;48.072;7.800;2023-08-30T10:34:36;3.40;;;3.10;;
63555;SDS011;49700;48.072;7.800;2023-08-30T10:37:02;3.13;;;2.93;;
63555;SDS011;49700;48.072;7.800;2023-08-30T10:39:40;2.80;;;2.53;;
63555;SDS011;49700;48.072;7.800;2023-08-30T10:42:10;3.77;;;3.23;;
63555;SDS011;49700;48.072;7.800;2023-08-30T10:47:35;3.40;;;3.10;;
63555;SDS011;49700;48.072;7.800;2023-08-30T10:52:32;3.40;;;3.10;;
63555;SDS011;49700;48.072;7.800;2023-08-30T10:55:04;3.40;;;2.70;;
63555;SDS011;49700;48.072;7.800;2023-08-30T10:57:37;3.60;;;2.80;;
63555;SDS011;49700;48.072;7.800;2023-08-30T11:02:38;3.37;;;3.07;;
63555;SDS011;49700;48.072;7.800;2023-08-30T11:05:08;4.10;;;3.70;;
63555;SDS011;49700;48.072;7.800;2023-08-30T11:07:34;2.70;;;2.30;;
63555;SDS011;49700;48.072;7.800;2023-08-30T11:10:00;5.40;;;2.90;;
63555;SDS011;49700;48.072;7.800;2023-08-30T11:12:25;3.40;;;3.10;;
63555;SDS011;49700;48.072;7.800;2023-08-30T11:14:54;4.23;;;3.60;;
63555;SDS011;49700;48.072;7.800;2023-08-30T11:17:19;3.30;;;3.03;;
63555;SDS011;49700;48.072;7.800;2023-08-30T11:19:45;4.20;;;3.00;;
63555;SDS011;49700;48.072;7.800;2023-08-30T11:22:13;2.77;;;2.57;;
63555;SDS011;49700;48.072;7.800;2023-08-30T11:24:39;3.83;;;3.47;;
63555;SDS011;49700;48.072;7.800;2023-08-30T11:27:05;4.00;;;3.33;;
63555;SDS011;49700;48.072;7.800;2023-08-30T11:29:31;3.23;;;2.90;;
63555;SDS011;49700;48.072;7.800;2023-08-30T11:31:57;2.83;;;2.60;;
63555;SDS011;49700;48.072;7.800;2023-08-30T11:34:22;3.90;;;3.37;;
63555;SDS011;49700;48.072;7.800;2023-08-30T11:36:48;2.80;;;2.60;;
63555;SDS011;49700;48.072;7.800;2023-08-30T11:39:15;3.40;;;3.10;;
63555;SDS011;49700;48.072;7.800;2023-08-30T11:41:42;3.07;;;2.77;;
63555;SDS011;49700;48.072;7.800;2023-08-30T11:44:08;3.30;;;3.00;;
63555;SDS011;49700;48.072;7.800;2023-08-30T11:46:34;3.20;;;2.90;;
63555;SDS011;49700;48.072;7.800;2023-08-30T11:48:59;2.53;;;2.33;;
63555;SDS011;49700;48.072;7.800;2023-08-30T11:51:25;2.83;;;2.60;;
63555;SDS011;49700;48.072;7.800;2023-08-30T11:53:51;2.70;;;2.50;;
63555;SDS011;49700;48.072;7.800;2023-08-30T11:56:18;2.77;;;2.57;;
63555;SDS011;49700;48.072;7.800;2023-08-30T11:58:44;2.97;;;2.67;;
63555;SDS011;49700;48.072;7.800;2023-08-30T12:01:10;2.87;;;2.57;;
63555;SDS011;49700;48.072;7.800;2023-08-30T12:03:36;2.40;;;2.20;;
63555;SDS011;49700;48.072;7.800;2023-08-30T12:06:02;3.07;;;2.87;;
63555;SDS011;49700;48.072;7.800;2023-08-30T12:08:31;3.10;;;2.80;;
63555;SDS011;49700;48.072;7.800;2023-08-30T12:10:57;2.93;;;2.70;;
63555;SDS011;49700;48.072;7.800;2023-08-30T12:13:29;3.10;;;2.90;;
63555;SDS011;49700;48.072;7.800;2023-08-30T12:15:57;3.77;;;2.67;;
63555;SDS011;49700;48.072;7.800;2023-08-30T12:18:24;4.30;;;2.90;;
63555;SDS011;49700;48.072;7.800;2023-08-30T12:21:03;3.07;;;2.73;;
63555;SDS011;49700;48.072;7.800;2023-08-30T12:23:29;4.60;;;2.60;;
63555;SDS011;49700;48.072;7.800;2023-08-30T12:26:00;3.03;;;2.33;;
63555;SDS011;49700;48.072;7.800;2023-08-30T12:28:29;4.00;;;3.70;;
63555;SDS011;49700;48.072;7.800;2023-08-30T12:30:55;4.00;;;3.70;;
63555;SDS011;49700;48.072;7.800;2023-08-30T12:33:21;5.37;;;3.10;;
63555;SDS011;49700;48.072;7.800;2023-08-30T12:35:47;3.67;;;2.90;;
63555;SDS011;49700;48.072;7.800;2023-08-30T12:38:13;3.50;;;2.63;;
63555;SDS011;49700;48.072;7.800;2023-08-30T12:40:45;2.97;;;2.63;;
63555;SDS011;49700;48.072;7.800;2023-08-30T12:43:15;3.33;;;2.40;;
63555;SDS011;49700;48.072;7.800;2023-08-30T12:45:42;2.00;;;1.90;;
63555;SDS011;49700;48.072;7.800;2023-08-30T12:48:09;1.77;;;1.67;;
63555;SDS011;49700;48.072;7.800;2023-08-30T12:50:36;2.10;;;1.90;;
63555;SDS011;49700;48.072;7.800;2023-08-30T12:53:05;2.63;;;2.43;;
63555;SDS011;49700;48.072;7.800;2023-08-30T12:55:31;2.27;;;2.07;;
63555;SDS011;49700;48.072;7.800;2023-08-30T12:57:57;2.43;;;2.00;;
63555;SDS011;49700;48.072;7.800;2023-08-30T13:00:23;3.33;;;1.87;;
63555;SDS011;49700;48.072;7.800;2023-08-30T13:02:49;2.40;;;2.10;;
63555;SDS011;49700;48.072;7.800;2023-08-30T13:05:15;3.53;;;2.40;;
63555;SDS011;49700;48.072;7.800;2023-08-30T13:07:40;3.70;;;2.23;;
63555;SDS011;49700;48.072;7.800;2023-08-30T13:10:07;2.87;;;2.57;;
63555;SDS011;49700;48.072;7.800;2023-08-30T13:12:33;2.97;;;2.73;;
63555;SDS011;49700;48.072;7.800;2023-08-30T13:14:58;2.20;;;2.00;;
63555;SDS011;49700;48.072;7.800;2023-08-30T13:17:24;2.20;;;2.10;;
63555;SDS011;49700;48.072;7.800;2023-08-30T13:19:49;2.20;;;2.10;;
63555;SDS011;49700;48.072;7.800;2023-08-30T13:22:16;2.13;;;1.90;;
63555;SDS011;49700;48.072;7.800;2023-08-30T13:24:43;2.10;;;1.90;;
63555;SDS011;49700;48.072;7.800;2023-08-30T13:27:12;1.80;;;1.70;;
63555;SDS011;49700;48.072;7.800;2023-08-30T13:29:38;1.87;;;1.70;;
63555;SDS011;49700;48.072;7.800;2023-08-30T13:32:03;2.07;;;1.90;;
63555;SDS011;49700;48.072;7.800;2023-08-30T13:34:29;1.90;;;1.77;;
63555;SDS011;49700;48.072;7.800;2023-08-30T13:36:55;2.33;;;2.13;;
63555;SDS011;49700;48.072;7.800;2023-08-30T13:39:20;2.53;;;2.33;;
63555;SDS011;49700;48.072;7.800;2023-08-30T13:41:46;2.33;;;2.13;;
63555;SDS011;49700;48.072;7.800;2023-08-30T13:44:12;2.20;;;2.10;;
63555;SDS011;49700;48.072;7.800;2023-08-30T13:46:38;2.17;;;2.07;;
63555;SDS011;49700;48.072;7.800;2023-08-30T13:49:03;3.00;;;1.83;;
63555;SDS011;49700;48.072;7.800;2023-08-30T13:51:29;2.17;;;1.90;;
63555;SDS011;49700;48.072;7.800;2023-08-30T13:53:55;1.50;;;1.40;;
63555;SDS011;49700;48.072;7.800;2023-08-30T13:56:20;2.30;;;2.10;;
63555;SDS011;49700;48.072;7.800;2023-08-30T13:58:48;1.50;;;1.40;;
63555;SDS011;49700;48.072;7.800;2023-08-30T14:01:13;1.90;;;1.80;;
63555;SDS011;49700;48.072;7.800;2023-08-30T14:03:39;2.67;;;2.47;;
63555;SDS011;49700;48.072;7.800;2023-08-30T14:06:05;2.20;;;2.10;;
63555;SDS011;49700;48.072;7.800;2023-08-30T14:08:30;1.70;;;1.60;;
63555;SDS011;49700;48.072;7.800;2023-08-30T14:10:56;2.13;;;1.63;;
63555;SDS011;49700;48.072;7.800;2023-08-30T14:13:21;1.73;;;1.63;;
63555;SDS011;49700;48.072;7.800;2023-08-30T14:15:47;2.80;;;2.00;;
63555;SDS011;49700;48.072;7.800;2023-08-30T14:18:12;1.77;;;1.67;;
63555;SDS011;49700;48.072;7.800;2023-08-30T14:20:38;2.03;;;1.80;;
63555;SDS011;49700;48.072;7.800;2023-08-30T14:23:03;1.70;;;1.60;;
63555;SDS011;49700;48.072;7.800;2023-08-30T14:25:29;1.93;;;1.70;;
63555;SDS011;49700;48.072;7.800;2023-08-30T14:27:54;1.83;;;1.57;;
63555;SDS011;49700;48.072;7.800;2023-08-30T14:30:20;3.47;;;2.20;;
63555;SDS011;49700;48.072;7.800;2023-08-30T14:32:46;1.87;;;1.77;;
63555;SDS011;49700;48.072;7.800;2023-08-30T14:35:11;1.73;;;1.63;;
63555;SDS011;49700;48.072;7.800;2023-08-30T14:37:37;1.77;;;1.67;;
63555;SDS011;49700;48.072;7.800;2023-08-30T14:40:05;2.03;;;1.83;;
63555;SDS011;49700;48.072;7.800;2023-08-30T14:42:32;2.40;;;1.93;;
63555;SDS011;49700;48.072;7.800;2023-08-30T14:44:58;2.07;;;1.90;;
63555;SDS011;49700;48.072;7.800;2023-08-30T14:47:23;2.70;;;2.23;;
63555;SDS011;49700;48.072;7.800;2023-08-30T14:49:49;2.60;;;2.20;;
63555;SDS011;49700;48.072;7.800;2023-08-30T14:52:14;4.03;;;1.70;;
63555;SDS011;49700;48.072;7.800;2023-08-30T14:54:40;1.73;;;1.40;;
63555;SDS011;49700;48.072;7.800;2023-08-30T14:57:06;3.97;;;1.60;;
63555;SDS011;49700;48.072;7.800;2023-08-30T14:59:32;2.00;;;1.80;;